This is the latest recevied weather packets stored in our database for station/object ED3YAB-7. If no packets are shown the sender has not sent any weather packets the latest 10 day(s).
| Time | Temp. | Humidity | Pressure | Rain* | Wind** | Luminosity | Snow |
|---|---|---|---|---|---|---|---|
| 1777618798 | 16.11° C | 57% | 1025.9 hPa | - | - | - | - |
| 1777617598 | 16.11° C | 58% | 1025.8 hPa | - | - | - | - |
| 1777616398 | 16.11° C | 59% | 1025.6 hPa | - | - | - | - |
| 1777615200 | 15° C | 60% | 1025.6 hPa | - | - | - | - |
| 1777614000 | 14.44° C | 62% | 1025.5 hPa | - | - | - | - |
| 1777612800 | 13.89° C | 64% | 1025.3 hPa | - | - | - | - |
| 1777611600 | 13.89° C | 65% | 1025.2 hPa | - | - | - | - |
| 1777610400 | 13.33° C | 65% | 1025 hPa | - | - | - | - |
| 1777609199 | 13.33° C | 65% | 1024.9 hPa | - | - | - | - |
| 1777607999 | 13.33° C | 66% | 1024.8 hPa | - | - | - | - |
| 1777606799 | 13.89° C | 65% | 1024.9 hPa | - | - | - | - |
| 1777605599 | 13.33° C | 66% | 1024.8 hPa | - | - | - | - |
| 1777604399 | 13.33° C | 65% | 1024.8 hPa | - | - | - | - |
| 1777603199 | 14.44° C | 64% | 1024.7 hPa | - | - | - | - |
| 1777601999 | 13.89° C | 64% | 1024.7 hPa | - | - | - | - |
| 1777580829 | 16.67° C | 60% | 1023.2 hPa | - | - | - | - |
| 1777566152 | 41.11° C | 13% | 1020.9 hPa | - | - | - | - |
| 1777564064 | 43.33° C | 12% | 1020.8 hPa | - | - | - | - |
| 1777561353 | 42.78° C | 12% | 1020.4 hPa | - | - | - | - |
| 1777556560 | 38.89° C | 15% | 1020.8 hPa | - | - | - | - |
| 1777555360 | 41.11° C | 15% | 1020.8 hPa | - | - | - | - |
| 1777551759 | 27.78° C | 28% | 1021.1 hPa | - | - | - | - |
| 1777551752 | 27.78° C | 28% | 1021.1 hPa | - | - | - | - |
| 1777548151 | 25° C | 34% | 1021.4 hPa | - | - | - | - |
| 1777546951 | 24.44° C | 34% | 1021.5 hPa | - | - | - | - |
* Rain since midnight (hover to see other rain measurements)
** Current wind speed in m/s (hover to see current wind gust speed)